Time;durP1;ratioP1;P1;durP2;ratioP2;P2;SDS_P1;SDS_P2;PMS_P1;PMS_P2;Temp;Humidity;BMP_temperature;BMP_pressure;BME280_temperature;BME280_humidity;BME280_pressure;Samples;Min_cycle;Max_cycle;Signal;HPM_P1;HPM_P2
2023/04/22 00:02:08;;;;;;;0.20;0.20;;;6.60;99.90;;;;;;5035343;28;20021;-74
2023/04/22 00:04:34;;;;;;;0.20;0.20;;;6.60;99.90;;;;;;5036287;28;20028;-74
2023/04/22 00:07:00;;;;;;;0.20;0.20;;;6.60;99.90;;;;;;5036460;28;20022;-74
2023/04/22 00:09:25;;;;;;;0.20;0.20;;;6.60;99.90;;;;;;5035804;28;20037;-74
2023/04/22 00:11:51;;;;;;;0.30;0.30;;;6.60;99.90;;;;;;5036233;28;20101;-74
2023/04/22 00:14:17;;;;;;;0.20;0.20;;;6.60;99.90;;;;;;5018612;28;20503;-74
2023/04/22 00:16:43;;;;;;;0.30;0.30;;;6.60;99.90;;;;;;5036156;28;20136;-74
2023/04/22 00:19:08;;;;;;;0.30;0.30;;;6.60;99.90;;;;;;5036330;28;20415;-73
2023/04/22 00:21:34;;;;;;;0.30;0.30;;;6.50;99.90;;;;;;5035253;28;20119;-74
2023/04/22 00:23:59;;;;;;;0.30;0.30;;;6.50;99.90;;;;;;5036099;28;20056;-74
2023/04/22 00:26:25;;;;;;;0.30;0.30;;;6.40;99.90;;;;;;5035964;28;20080;-74
2023/04/22 00:28:53;;;;;;;0.20;0.20;;;6.30;99.90;;;;;;5035958;28;20376;-74
2023/04/22 00:31:18;;;;;;;0.20;0.20;;;6.30;99.90;;;;;;5017687;28;20064;-74
2023/04/22 00:33:44;;;;;;;0.25;0.25;;;6.20;99.90;;;;;;5035742;28;20026;-74
2023/04/22 00:36:09;;;;;;;0.20;0.20;;;6.20;99.90;;;;;;5036073;28;20088;-74
2023/04/22 00:38:35;;;;;;;0.20;0.20;;;6.10;99.90;;;;;;5017880;28;20021;-74
2023/04/22 00:41:04;;;;;;;0.30;0.30;;;6.10;99.90;;;;;;5036211;28;20040;-74
2023/04/22 00:43:33;;;;;;;0.30;0.30;;;6.00;99.90;;;;;;5017846;28;20383;-74
2023/04/22 00:45:59;;;;;;;0.30;0.30;;;6.00;99.90;;;;;;5035741;28;20108;-74
2023/04/22 00:48:25;;;;;;;0.20;0.20;;;5.90;99.90;;;;;;5035740;28;20402;-74
2023/04/22 00:50:50;;;;;;;0.20;0.20;;;6.00;99.90;;;;;;5035357;28;20217;-74
2023/04/22 00:53:16;;;;;;;0.20;0.20;;;5.90;99.90;;;;;;5035765;28;20022;-74
2023/04/22 00:55:41;;;;;;;0.20;0.20;;;5.90;99.90;;;;;;5034914;28;20089;-74
2023/04/22 00:58:07;;;;;;;0.30;0.30;;;5.90;99.90;;;;;;5035567;28;20108;-74
2023/04/22 01:00:33;;;;;;;0.25;0.25;;;5.90;99.90;;;;;;5035188;28;20479;-74
2023/04/22 01:02:59;;;;;;;0.20;0.20;;;5.90;99.90;;;;;;5047912;23;20050;-72
2023/04/22 01:05:28;;;;;;;0.20;0.20;;;5.90;99.90;;;;;;4980419;28;20035;-72
2023/04/22 01:07:53;;;;;;;0.20;0.20;;;5.90;99.90;;;;;;4998648;28;20395;-72
2023/04/22 01:10:19;;;;;;;0.30;0.30;;;5.90;99.90;;;;;;4998015;28;20030;-72
2023/04/22 01:12:45;;;;;;;0.30;0.30;;;5.90;99.90;;;;;;4997987;28;20023;-72
2023/04/22 01:15:10;;;;;;;0.20;0.20;;;6.00;99.90;;;;;;4990658;28;20027;-72
2023/04/22 01:17:36;;;;;;;0.20;0.20;;;6.00;99.90;;;;;;4960909;28;20054;-72
2023/04/22 01:20:08;;;;;;;0.25;0.25;;;6.00;99.90;;;;;;4978363;28;20035;-72
2023/04/22 01:22:39;;;;;;;0.22;0.22;;;6.00;99.90;;;;;;4979174;28;20019;-72
2023/04/22 01:25:05;;;;;;;0.20;0.20;;;6.00;99.90;;;;;;4978723;28;20034;-72
2023/04/22 01:27:31;;;;;;;0.28;0.28;;;6.00;99.90;;;;;;4978449;28;20174;-72
2023/04/22 01:29:57;;;;;;;0.20;0.20;;;6.10;99.90;;;;;;4961085;28;20066;-72
2023/04/22 01:32:23;;;;;;;0.20;0.20;;;6.10;99.90;;;;;;4984058;28;20015;-72
2023/04/22 01:34:49;;;;;;;0.30;0.30;;;6.20;99.90;;;;;;4997866;28;20042;-72
2023/04/22 01:37:14;;;;;;;0.30;0.30;;;6.20;99.90;;;;;;4997414;28;20023;-72
2023/04/22 01:39:40;;;;;;;0.30;0.30;;;6.20;99.90;;;;;;4997297;28;20113;-72
2023/04/22 01:42:07;;;;;;;0.25;0.25;;;6.20;99.90;;;;;;4997367;28;20045;-72
2023/04/22 01:44:32;;;;;;;0.30;0.30;;;6.10;99.90;;;;;;4979972;28;20030;-72
2023/04/22 01:46:58;;;;;;;0.30;0.30;;;6.00;99.90;;;;;;4978152;28;20027;-72
2023/04/22 01:49:23;;;;;;;0.30;0.30;;;6.00;99.90;;;;;;4978099;28;20042;-72
2023/04/22 01:51:49;;;;;;;0.30;0.30;;;5.90;99.90;;;;;;4977881;28;20445;-72
2023/04/22 01:54:15;;;;;;;0.30;0.30;;;5.90;99.90;;;;;;4977760;28;20037;-72
2023/04/22 01:56:40;;;;;;;0.30;0.30;;;5.80;99.90;;;;;;4977874;28;20504;-72
2023/04/22 01:59:07;;;;;;;0.20;0.20;;;5.80;99.90;;;;;;4967044;28;20058;-72
2023/04/22 02:01:33;;;;;;;0.25;0.25;;;5.80;99.90;;;;;;4984795;28;20027;-72
2023/04/22 02:03:58;;;;;;;0.20;0.20;;;5.80;99.90;;;;;;4959140;28;20107;-71
2023/04/22 02:06:24;;;;;;;0.20;0.20;;;5.70;99.90;;;;;;4977906;28;20436;-72
2023/04/22 02:08:49;;;;;;;0.30;0.30;;;5.70;99.90;;;;;;4986725;28;20026;-72
2023/04/22 02:11:15;;;;;;;0.25;0.25;;;5.70;99.90;;;;;;4996940;28;20050;-72
2023/04/22 02:13:40;;;;;;;0.20;0.20;;;5.70;99.90;;;;;;4996748;28;20061;-72
2023/04/22 02:16:06;;;;;;;0.30;0.30;;;5.70;99.90;;;;;;4997177;28;20031;-72
2023/04/22 02:18:32;;;;;;;0.20;0.20;;;5.70;99.90;;;;;;4997059;28;20031;-72
2023/04/22 02:20:58;;;;;;;0.30;0.30;;;5.70;99.90;;;;;;4980380;28;20031;-72
2023/04/22 02:23:24;;;;;;;0.30;0.30;;;5.70;99.90;;;;;;4976525;28;20460;-72
2023/04/22 02:25:51;;;;;;;0.30;0.30;;;5.70;99.90;;;;;;4977483;28;20027;-72
2023/04/22 02:28:17;;;;;;;0.30;0.30;;;5.70;99.90;;;;;;4977582;28;20081;-72
2023/04/22 02:30:44;;;;;;;0.30;0.30;;;5.70;99.90;;;;;;4977023;28;20552;-72
2023/04/22 02:33:09;;;;;;;0.30;0.30;;;5.70;99.90;;;;;;4977182;28;20085;-72
2023/04/22 02:35:35;;;;;;;0.30;0.30;;;5.70;99.90;;;;;;4984031;28;20038;-72
2023/04/22 02:38:01;;;;;;;0.30;0.30;;;5.70;99.90;;;;;;4996484;28;20027;-72
2023/04/22 02:40:26;;;;;;;0.30;0.30;;;5.70;99.90;;;;;;4996659;28;20034;-72
2023/04/22 02:42:52;;;;;;;0.20;0.20;;;5.70;99.90;;;;;;4996456;28;20026;-72
2023/04/22 02:45:17;;;;;;;0.20;0.20;;;5.70;99.90;;;;;;4996363;28;20058;-72
2023/04/22 02:47:43;;;;;;;0.30;0.30;;;5.60;99.90;;;;;;4982626;28;20477;-72
2023/04/22 02:50:09;;;;;;;0.20;0.20;;;5.60;99.90;;;;;;4977204;28;20030;-71
2023/04/22 02:52:34;;;;;;;0.20;0.20;;;5.60;99.90;;;;;;4976854;28;20105;-72
2023/04/22 02:55:00;;;;;;;0.20;0.20;;;5.60;99.90;;;;;;4976939;28;20054;-72
2023/04/22 02:57:25;;;;;;;0.15;0.15;;;5.60;99.90;;;;;;4976510;28;20066;-72
2023/04/22 02:59:51;;;;;;;0.20;0.20;;;5.60;99.90;;;;;;4988408;28;20045;-72
2023/04/22 03:02:17;;;;;;;0.20;0.20;;;5.50;99.90;;;;;;4996370;28;20075;-72
2023/04/22 03:04:43;;;;;;;0.30;0.30;;;5.50;99.90;;;;;;4995858;28;20516;-72
2023/04/22 03:07:09;;;;;;;0.20;0.20;;;5.50;99.90;;;;;;4978187;28;20034;-72
2023/04/22 03:09:34;;;;;;;0.20;0.20;;;5.50;99.90;;;;;;4996103;28;20480;-72
2023/04/22 03:12:01;;;;;;;0.20;0.20;;;5.50;99.90;;;;;;4996264;28;20447;-72
2023/04/22 03:14:26;;;;;;;0.20;0.20;;;5.40;99.90;;;;;;4995289;28;20081;-72
2023/04/22 03:16:52;;;;;;;0.25;0.25;;;5.40;99.90;;;;;;4996363;28;20034;-72
2023/04/22 03:19:17;;;;;;;0.28;0.28;;;5.40;99.90;;;;;;4995641;28;20030;-72
2023/04/22 03:21:43;;;;;;;0.22;0.22;;;5.30;99.90;;;;;;4995952;28;20039;-72
2023/04/22 03:24:08;;;;;;;0.20;0.20;;;5.30;99.90;;;;;;4996059;28;20085;-72
2023/04/22 03:26:34;;;;;;;0.30;0.30;;;5.30;99.90;;;;;;4996014;28;20077;-72
2023/04/22 03:29:00;;;;;;;0.30;0.30;;;5.30;99.90;;;;;;4995277;28;20022;-72
2023/04/22 03:31:26;;;;;;;0.28;0.28;;;5.30;99.90;;;;;;4978152;28;20058;-72
2023/04/22 03:33:51;;;;;;;0.17;0.17;;;5.30;99.90;;;;;;4995737;28;20046;-72
2023/04/22 03:36:17;;;;;;;0.20;0.20;;;5.30;99.90;;;;;;4997689;28;20037;-72
2023/04/22 03:38:42;;;;;;;0.20;0.20;;;5.40;99.90;;;;;;4999632;28;20026;-72
2023/04/22 03:41:08;;;;;;;0.30;0.30;;;5.40;99.90;;;;;;4998568;28;20113;-72
2023/04/22 03:43:33;;;;;;;0.20;0.20;;;5.50;99.90;;;;;;4999919;28;20034;-72
2023/04/22 03:45:59;;;;;;;0.20;0.20;;;5.40;99.90;;;;;;4982415;28;20093;-72
2023/04/22 03:48:25;;;;;;;0.20;0.20;;;5.40;99.90;;;;;;5000128;28;20097;-72
2023/04/22 03:50:50;;;;;;;0.30;0.30;;;5.40;99.90;;;;;;4999509;28;20026;-72
2023/04/22 03:53:16;;;;;;;0.20;0.20;;;5.40;99.90;;;;;;4982005;28;20026;-72
2023/04/22 03:55:41;;;;;;;0.30;0.30;;;5.30;99.90;;;;;;4999294;28;20418;-72
2023/04/22 03:58:07;;;;;;;0.20;0.20;;;5.30;99.90;;;;;;4999842;28;20037;-72
2023/04/22 04:00:32;;;;;;;0.20;0.20;;;5.40;99.90;;;;;;4998972;28;20033;-72
2023/04/22 04:02:58;;;;;;;0.25;0.25;;;5.40;99.90;;;;;;4998739;28;20030;-72
2023/04/22 04:05:24;;;;;;;0.20;0.20;;;5.50;99.90;;;;;;4989420;28;20031;-72
2023/04/22 04:07:49;;;;;;;0.20;0.20;;;5.60;99.90;;;;;;4980089;28;20469;-72
2023/04/22 04:10:15;;;;;;;0.30;0.30;;;5.60;99.90;;;;;;4989442;28;20029;-72
2023/04/22 04:12:40;;;;;;;0.25;0.25;;;5.60;99.90;;;;;;4999049;28;20026;-72
2023/04/22 04:15:06;;;;;;;0.20;0.20;;;5.60;99.90;;;;;;4981992;28;20018;-72
2023/04/22 04:17:32;;;;;;;0.20;0.20;;;5.60;99.90;;;;;;4998885;28;20396;-72
2023/04/22 04:20:00;;;;;;;0.30;0.30;;;5.60;99.90;;;;;;4984063;28;20109;-72
2023/04/22 04:22:26;;;;;;;0.20;0.20;;;5.60;99.90;;;;;;4979095;28;20058;-72
2023/04/22 04:24:55;;;;;;;0.20;0.20;;;5.70;99.90;;;;;;4982019;28;20022;-72
2023/04/22 04:27:22;;;;;;;0.20;0.20;;;5.80;99.90;;;;;;4999345;28;20112;-72
2023/04/22 04:29:48;;;;;;;0.20;0.20;;;5.90;99.90;;;;;;4998727;28;20555;-72
2023/04/22 04:32:14;;;;;;;0.30;0.30;;;5.90;99.90;;;;;;4999083;28;20042;-72
2023/04/22 04:34:41;;;;;;;0.20;0.20;;;5.90;99.90;;;;;;4998093;28;20026;-72
2023/04/22 04:37:06;;;;;;;0.20;0.20;;;5.90;99.90;;;;;;4980988;28;20026;-72
2023/04/22 04:39:32;;;;;;;0.30;0.30;;;5.90;99.90;;;;;;4998915;28;20044;-72
2023/04/22 04:41:59;;;;;;;0.20;0.20;;;5.90;99.90;;;;;;4998973;28;20046;-72
2023/04/22 04:44:30;;;;;;;0.20;0.20;;;6.00;99.90;;;;;;4998358;28;20018;-72
2023/04/22 04:46:56;;;;;;;0.30;0.30;;;6.00;99.90;;;;;;4997522;28;20481;-72
2023/04/22 04:49:22;;;;;;;0.20;0.20;;;6.00;99.90;;;;;;4998808;28;20503;-72
2023/04/22 04:51:48;;;;;;;0.25;0.25;;;6.00;99.90;;;;;;4998476;28;20068;-71
2023/04/22 04:54:15;;;;;;;0.20;0.20;;;6.00;99.90;;;;;;4998500;28;20022;-72
2023/04/22 04:56:40;;;;;;;0.30;0.30;;;6.10;99.90;;;;;;4998469;28;20030;-72
2023/04/22 04:59:06;;;;;;;0.20;0.20;;;6.10;99.90;;;;;;4998095;28;20101;-72
2023/04/22 05:01:31;;;;;;;0.20;0.20;;;6.20;99.90;;;;;;4978869;28;20082;-72
2023/04/22 05:03:57;;;;;;;0.20;0.20;;;6.20;99.90;;;;;;4998440;28;20085;-72
2023/04/22 05:06:22;;;;;;;0.20;0.20;;;6.30;99.90;;;;;;4998697;28;20026;-72
2023/04/22 05:08:48;;;;;;;0.20;0.20;;;6.30;99.90;;;;;;4998148;28;20093;-72
2023/04/22 05:11:13;;;;;;;0.30;0.30;;;6.40;99.90;;;;;;4997884;28;20459;-72
2023/04/22 05:13:39;;;;;;;0.20;0.20;;;6.40;99.90;;;;;;4998012;28;20057;-72
2023/04/22 05:16:05;;;;;;;0.20;0.20;;;6.50;99.90;;;;;;4998364;28;20077;-72
2023/04/22 05:18:30;;;;;;;0.30;0.30;;;6.60;99.90;;;;;;4997749;28;20034;-72
2023/04/22 05:20:58;;;;;;;0.20;0.20;;;6.60;99.90;;;;;;4998138;28;20050;-72
2023/04/22 05:23:24;;;;;;;0.20;0.20;;;6.70;99.90;;;;;;4997864;28;20033;-72
2023/04/22 05:25:50;;;;;;;0.20;0.20;;;6.80;99.90;;;;;;4998038;28;20022;-72
2023/04/22 05:28:15;;;;;;;0.20;0.20;;;6.90;99.90;;;;;;4998088;28;20499;-74
2023/04/22 05:30:41;;;;;;;0.15;0.15;;;7.00;99.90;;;;;;4981792;28;20456;-71
2023/04/22 05:33:09;;;;;;;0.25;0.25;;;7.20;99.90;;;;;;4964642;28;20448;-72
2023/04/22 05:35:35;;;;;;;0.20;0.20;;;7.30;99.90;;;;;;4960708;28;20027;-72
2023/04/22 05:38:01;;;;;;;0.10;0.10;;;7.50;99.90;;;;;;4974897;28;20348;-72
2023/04/22 05:40:27;;;;;;;0.20;0.20;;;7.70;99.90;;;;;;4974818;28;20476;-72
2023/04/22 05:42:53;;;;;;;0.20;0.20;;;7.80;99.90;;;;;;4967390;28;20030;-73
2023/04/22 05:45:18;;;;;;;0.20;0.20;;;8.00;99.90;;;;;;4963582;28;20019;-73
2023/04/22 05:47:44;;;;;;;0.10;0.10;;;8.20;99.90;;;;;;4967972;28;20031;-72
2023/04/22 05:50:10;;;;;;;0.13;0.13;;;8.30;99.90;;;;;;4972648;28;20049;-72
2023/04/22 05:52:35;;;;;;;0.20;0.20;;;8.40;99.90;;;;;;4975917;28;20071;-72
2023/04/22 05:55:01;;;;;;;0.20;0.20;;;8.60;99.90;;;;;;4958575;28;20031;-72
2023/04/22 05:57:26;;;;;;;0.20;0.20;;;8.80;99.90;;;;;;4961417;28;20034;-71
2023/04/22 05:59:52;;;;;;;0.30;0.30;;;9.00;99.90;;;;;;4967284;28;20030;-71
2023/04/22 06:02:17;;;;;;;0.20;0.20;;;9.20;99.90;;;;;;4960049;28;20507;-72
2023/04/22 06:04:43;;;;;;;0.20;0.20;;;9.40;99.90;;;;;;4960627;28;20198;-72
2023/04/22 06:07:08;;;;;;;0.13;0.13;;;9.50;99.90;;;;;;4967817;28;20473;-71
2023/04/22 06:09:34;;;;;;;0.20;0.20;;;9.70;99.90;;;;;;4975633;28;20387;-72
2023/04/22 06:12:00;;;;;;;0.20;0.20;;;9.90;99.90;;;;;;4972842;28;20026;-71
2023/04/22 06:14:26;;;;;;;0.20;0.20;;;10.00;99.90;;;;;;4963318;28;20023;-71
2023/04/22 06:16:52;;;;;;;0.20;0.20;;;10.20;99.90;;;;;;4964955;28;20031;-71
2023/04/22 06:19:18;;;;;;;0.20;0.20;;;10.30;99.90;;;;;;4961334;28;20086;-70
2023/04/22 06:21:44;;;;;;;0.10;0.10;;;10.50;99.90;;;;;;4987859;28;20030;-73
2023/04/22 06:24:09;;;;;;;0.20;0.20;;;10.60;99.90;;;;;;4977417;28;20034;-73
2023/04/22 06:26:38;;;;;;;0.20;0.20;;;10.80;99.90;;;;;;4967680;28;20022;-73
2023/04/22 06:29:04;;;;;;;0.20;0.20;;;11.00;99.90;;;;;;4996339;28;20038;-73
2023/04/22 06:31:31;;;;;;;0.20;0.20;;;11.10;99.90;;;;;;4996809;28;20022;-73
2023/04/22 06:33:57;;;;;;;0.10;0.10;;;11.30;99.90;;;;;;4966306;28;20096;-73
2023/04/22 06:36:23;;;;;;;0.20;0.20;;;11.40;99.90;;;;;;4987825;28;20025;-74
2023/04/22 06:38:48;;;;;;;0.20;0.20;;;11.70;99.90;;;;;;4991749;28;20034;-73
2023/04/22 06:41:14;;;;;;;0.13;0.13;;;11.80;99.90;;;;;;4996418;28;20101;-73
2023/04/22 06:43:39;;;;;;;0.10;0.10;;;11.90;99.90;;;;;;4976895;28;20026;-74
2023/04/22 06:46:05;;;;;;;0.20;0.20;;;12.10;99.90;;;;;;4977452;28;20081;-74
2023/04/22 06:48:32;;;;;;;0.20;0.20;;;12.20;99.90;;;;;;4978023;28;20030;-73
2023/04/22 06:51:00;;;;;;;0.17;0.17;;;12.40;99.90;;;;;;4996074;28;20034;-73
2023/04/22 06:53:26;;;;;;;0.10;0.10;;;12.50;99.90;;;;;;4996438;28;21598;-74
2023/04/22 06:55:53;;;;;;;0.10;0.10;;;12.70;99.90;;;;;;4987280;28;20031;-73
2023/04/22 06:58:19;;;;;;;0.20;0.20;;;12.80;99.90;;;;;;4977093;28;20023;-74
2023/04/22 07:00:44;;;;;;;0.20;0.20;;;12.90;99.90;;;;;;4985461;28;20030;-74
2023/04/22 07:03:10;;;;;;;0.20;0.20;;;13.10;99.90;;;;;;5099926;23;20110;-76
2023/04/22 07:05:36;;;;;;;0.20;0.20;;;13.20;99.90;;;;;;5053139;28;20025;-76
2023/04/22 07:08:01;;;;;;;0.20;0.20;;;13.30;99.90;;;;;;5052732;28;20029;-76
2023/04/22 07:10:27;;;;;;;0.30;0.30;;;13.50;99.90;;;;;;5052862;28;20013;-76
2023/04/22 07:12:52;;;;;;;0.17;0.17;;;13.60;99.90;;;;;;5035468;28;20043;-76
2023/04/22 07:15:18;;;;;;;0.20;0.20;;;13.80;99.90;;;;;;5052312;28;20490;-76
2023/04/22 07:17:43;;;;;;;0.20;0.20;;;13.90;99.90;;;;;;5053044;28;20028;-76
2023/04/22 07:20:09;;;;;;;0.30;0.30;;;13.90;99.90;;;;;;5052011;28;20033;-76
2023/04/22 07:22:35;;;;;;;0.20;0.20;;;14.10;99.90;;;;;;5052720;28;20029;-76
2023/04/22 07:25:01;;;;;;;0.20;0.20;;;14.20;99.90;;;;;;5053183;28;20024;-77
2023/04/22 07:27:26;;;;;;;0.15;0.15;;;14.40;99.90;;;;;;5052661;28;20025;-77
2023/04/22 07:29:52;;;;;;;0.13;0.13;;;14.70;99.90;;;;;;5053003;28;20036;-76
2023/04/22 07:32:17;;;;;;;0.20;0.20;;;14.80;99.90;;;;;;5051998;28;20029;-76
2023/04/22 07:34:45;;;;;;;0.10;0.10;;;14.90;99.90;;;;;;5034522;28;20024;-76
2023/04/22 07:37:11;;;;;;;0.10;0.10;;;15.00;99.90;;;;;;5052592;28;20032;-76
2023/04/22 07:39:36;;;;;;;0.20;0.20;;;15.20;99.90;;;;;;5051621;28;20372;-76
2023/04/22 07:42:02;;;;;;;0.20;0.20;;;15.40;99.90;;;;;;5052615;28;20024;-76
2023/04/22 07:44:27;;;;;;;0.20;0.20;;;15.50;99.90;;;;;;5052577;28;20071;-76
2023/04/22 07:46:54;;;;;;;0.20;0.20;;;15.70;99.90;;;;;;5034805;28;20021;-76
2023/04/22 07:49:19;;;;;;;0.10;0.10;;;15.90;99.90;;;;;;5033993;28;20025;-76
2023/04/22 07:51:45;;;;;;;0.10;0.10;;;16.10;99.90;;;;;;5051999;28;20036;-77
2023/04/22 07:54:10;;;;;;;0.20;0.20;;;16.20;99.90;;;;;;5052746;28;20108;-76
2023/04/22 07:56:36;;;;;;;0.10;0.10;;;16.40;99.90;;;;;;5051822;28;20029;-75
2023/04/22 07:59:02;;;;;;;0.10;0.10;;;16.40;99.90;;;;;;5052517;28;20388;-76
2023/04/22 08:01:28;;;;;;;0.20;0.20;;;16.50;99.90;;;;;;5052229;28;20021;-76
2023/04/22 08:03:53;;;;;;;0.13;0.13;;;16.50;99.90;;;;;;5034412;28;20372;-77
2023/04/22 08:06:19;;;;;;;0.17;0.17;;;16.60;99.90;;;;;;5052642;28;20386;-75
2023/04/22 08:08:45;;;;;;;0.20;0.20;;;16.70;99.90;;;;;;5051784;28;20029;-77
2023/04/22 08:11:11;;;;;;;0.10;0.10;;;17.00;99.90;;;;;;5052456;28;20112;-77
2023/04/22 08:13:36;;;;;;;0.10;0.10;;;17.10;99.90;;;;;;5052209;28;20074;-77
2023/04/22 08:16:02;;;;;;;0.10;0.10;;;17.30;99.90;;;;;;5052415;28;20025;-77
2023/04/22 08:18:28;;;;;;;0.10;0.10;;;17.40;99.90;;;;;;5052080;28;20017;-77
2023/04/22 08:20:53;;;;;;;0.10;0.10;;;17.50;99.90;;;;;;5034314;28;20108;-77
2023/04/22 08:23:20;;;;;;;0.20;0.20;;;17.60;99.90;;;;;;5054474;28;20087;-77
2023/04/22 08:25:46;;;;;;;0.20;0.20;;;17.40;99.90;;;;;;5056861;28;20021;-77
2023/04/22 08:28:11;;;;;;;0.10;0.10;;;17.40;99.90;;;;;;5038175;28;20044;-77
2023/04/22 08:30:37;;;;;;;0.10;0.10;;;17.60;99.90;;;;;;5056231;28;20517;-77
2023/04/22 08:33:02;;;;;;;0.10;0.10;;;18.00;99.90;;;;;;5055316;28;20021;-77
2023/04/22 08:35:28;;;;;;;0.20;0.20;;;18.20;99.90;;;;;;5028613;28;20029;-77
2023/04/22 08:37:54;;;;;;;0.20;0.20;;;18.30;99.90;;;;;;5036028;28;20026;-77
2023/04/22 08:40:19;;;;;;;0.20;0.20;;;18.30;99.90;;;;;;5035585;28;20033;-76
2023/04/22 08:42:46;;;;;;;0.10;0.10;;;18.50;99.90;;;;;;5036079;28;20108;-77
2023/04/22 08:45:13;;;;;;;0.20;0.20;;;18.30;99.90;;;;;;5035228;28;20021;-76
2023/04/22 08:47:39;;;;;;;0.10;0.10;;;18.10;99.90;;;;;;5052642;28;20543;-76
2023/04/22 08:50:08;;;;;;;0.10;0.10;;;18.10;99.90;;;;;;5055734;28;20029;-77
2023/04/22 08:52:33;;;;;;;0.10;0.10;;;18.30;99.90;;;;;;5037591;28;20090;-76
2023/04/22 08:54:59;;;;;;;0.20;0.20;;;18.90;99.90;;;;;;5056940;28;20036;-77
2023/04/22 08:57:25;;;;;;;0.10;0.10;;;19.20;99.90;;;;;;5056548;28;20029;-76
2023/04/22 08:59:51;;;;;;;0.10;0.10;;;19.30;99.90;;;;;;5057413;28;20095;-76
2023/04/22 09:02:21;;;;;;;0.10;0.10;;;19.10;99.90;;;;;;5055454;28;20021;-77
2023/04/22 09:04:48;;;;;;;0.10;0.10;;;19.50;99.90;;;;;;5037755;28;20032;-77
2023/04/22 09:07:22;;;;;;;0.13;0.13;;;19.50;99.90;;;;;;5056224;28;20025;-76
2023/04/22 09:09:49;;;;;;;0.10;0.10;;;19.60;99.90;;;;;;5056308;28;20033;-76
2023/04/22 09:12:16;;;;;;;0.10;0.10;;;19.70;99.90;;;;;;5055428;28;20025;-76
2023/04/22 09:14:42;;;;;;;0.10;0.10;;;20.00;99.90;;;;;;5055639;28;20067;-76
2023/04/22 09:17:07;;;;;;;0.10;0.10;;;20.20;99.90;;;;;;5055411;28;20103;-76
2023/04/22 09:19:33;;;;;;;0.10;0.10;;;20.30;99.90;;;;;;5038014;28;20029;-76
2023/04/22 09:21:59;;;;;;;0.10;0.10;;;20.10;99.90;;;;;;5055948;28;20021;-76
2023/04/22 09:24:24;;;;;;;0.10;0.10;;;20.20;99.90;;;;;;5055339;28;20021;-76
2023/04/22 09:26:50;;;;;;;0.03;0.03;;;20.30;99.90;;;;;;5055559;28;20020;-75
2023/04/22 09:29:16;;;;;;;0.10;0.10;;;20.30;99.90;;;;;;5055555;28;20041;-76
2023/04/22 09:31:46;;;;;;;0.10;0.10;;;20.40;99.90;;;;;;5055196;28;20032;-75
2023/04/22 09:34:12;;;;;;;0.10;0.10;;;20.50;99.90;;;;;;5055638;28;20033;-75
2023/04/22 09:36:38;;;;;;;0.10;0.10;;;20.70;99.90;;;;;;5055562;28;20021;-75
2023/04/22 09:39:06;;;;;;;0.10;0.10;;;20.90;99.90;;;;;;5055816;28;20386;-75
2023/04/22 09:41:42;;;;;;;0.10;0.10;;;21.00;99.90;;;;;;5055233;28;20021;-75
2023/04/22 09:44:12;;;;;;;0.10;0.10;;;21.20;99.90;;;;;;5036816;28;20084;-76
2023/04/22 09:46:41;;;;;;;0.10;0.10;;;21.20;99.90;;;;;;5055003;28;20025;-75
2023/04/22 09:49:06;;;;;;;0.10;0.10;;;21.30;99.90;;;;;;5037482;28;20021;-75
2023/04/22 09:51:39;;;;;;;0.10;0.10;;;21.60;99.90;;;;;;5054944;28;20023;-76
2023/04/22 09:54:10;;;;;;;0.10;0.10;;;21.60;99.90;;;;;;5046528;28;20025;-75
2023/04/22 09:56:48;;;;;;;0.10;0.10;;;21.50;99.90;;;;;;5034966;28;20128;-75
2023/04/22 09:59:23;;;;;;;0.10;0.10;;;21.60;99.90;;;;;;5033275;28;20036;-75
2023/04/22 10:01:51;;;;;;;0.10;0.10;;;21.60;99.90;;;;;;5035669;28;20451;-75
2023/04/22 10:04:20;;;;;;;0.10;0.10;;;21.70;99.90;;;;;;5033008;28;20037;-76
2023/04/22 10:06:47;;;;;;;0.10;0.10;;;21.40;99.90;;;;;;5026392;28;20052;-76
2023/04/22 10:09:13;;;;;;;0.10;0.10;;;21.80;99.90;;;;;;5036741;28;20394;-76
2023/04/22 10:11:40;;;;;;;0.10;0.10;;;22.00;99.90;;;;;;5054614;28;20025;-76
2023/04/22 10:14:09;;;;;;;0.10;0.10;;;22.00;99.90;;;;;;5055032;23;20525;-76
2023/04/22 10:16:36;;;;;;;0.00;0.00;;;21.90;99.90;;;;;;5034401;28;20107;-76
2023/04/22 10:19:04;;;;;;;0.10;0.10;;;21.90;99.90;;;;;;5034748;28;20041;-76
2023/04/22 10:21:30;;;;;;;0.00;0.00;;;21.90;99.90;;;;;;5034588;28;20021;-76
2023/04/22 10:23:58;;;;;;;0.00;0.00;;;22.00;99.90;;;;;;5022248;28;20105;-77
2023/04/22 10:26:56;;;;;;;0.10;0.10;;;22.20;99.90;;;;;;5013142;28;20022;-77
2023/04/22 10:29:23;;;;;;;0.10;0.10;;;22.50;99.90;;;;;;5033739;28;20037;-77
2023/04/22 10:32:02;;;;;;;0.08;0.08;;;22.90;99.90;;;;;;5034692;28;20035;-77
2023/04/22 10:34:33;;;;;;;0.10;0.10;;;23.10;99.90;;;;;;5034460;28;20434;-76
2023/04/22 10:37:08;;;;;;;0.10;0.10;;;23.20;99.90;;;;;;5034705;28;20036;-77
2023/04/22 10:39:34;;;;;;;0.10;0.10;;;22.90;99.90;;;;;;5035295;28;20390;-77
2023/04/22 10:42:02;;;;;;;0.10;0.10;;;22.80;99.90;;;;;;5034643;28;20390;-75
2023/04/22 10:44:43;;;;;;;0.00;0.00;;;22.90;99.90;;;;;;5032613;28;20022;-75
2023/04/22 10:47:09;;;;;;;0.10;0.10;;;22.70;99.90;;;;;;5032946;28;20021;-76
2023/04/22 10:49:34;;;;;;;0.00;0.00;;;23.00;99.90;;;;;;5033677;28;20082;-76
2023/04/22 10:52:02;;;;;;;0.00;0.00;;;23.30;99.90;;;;;;5034202;28;20079;-77
2023/04/22 10:54:28;;;;;;;0.00;0.00;;;23.80;99.90;;;;;;5033652;28;20024;-77
2023/04/22 10:57:08;;;;;;;0.08;0.08;;;23.90;99.90;;;;;;5032663;28;20021;-76
2023/04/22 10:59:46;;;;;;;0.00;0.00;;;23.70;99.90;;;;;;5031105;28;20036;-76
2023/04/22 11:02:14;;;;;;;0.03;0.03;;;23.30;99.90;;;;;;5033978;28;20025;-76
2023/04/22 11:04:40;;;;;;;0.10;0.10;;;23.60;99.90;;;;;;5033939;28;20104;-75
2023/04/22 11:07:26;;;;;;;0.00;0.00;;;23.50;99.90;;;;;;5033351;28;20022;-75
2023/04/22 11:10:08;;;;;;;0.08;0.08;;;23.80;99.90;;;;;;5033902;28;20029;-75
2023/04/22 11:12:41;;;;;;;0.03;0.03;;;23.90;99.90;;;;;;5033356;28;20045;-75
2023/04/22 11:15:08;;;;;;;0.05;0.05;;;23.70;99.90;;;;;;5034191;28;20402;-76
2023/04/22 11:17:34;;;;;;;0.10;0.10;;;23.50;99.90;;;;;;5033775;28;20081;-74
2023/04/22 11:20:01;;;;;;;0.10;0.10;;;23.50;99.90;;;;;;5033877;28;20060;-74
2023/04/22 11:22:26;;;;;;;0.00;0.00;;;23.70;99.90;;;;;;5033152;28;20176;-75
2023/04/22 11:24:57;;;;;;;0.10;0.10;;;24.10;99.90;;;;;;5033171;28;20487;-74
2023/04/22 11:27:26;;;;;;;0.00;0.00;;;24.00;99.90;;;;;;5033273;28;20029;-75
2023/04/22 11:30:07;;;;;;;0.00;0.00;;;24.00;99.90;;;;;;5032949;28;20103;-75
2023/04/22 11:32:36;;;;;;;0.05;0.05;;;24.10;99.90;;;;;;5033703;28;20406;-75
2023/04/22 11:35:07;;;;;;;0.10;0.10;;;24.20;99.90;;;;;;5033744;28;20555;-75
2023/04/22 11:37:45;;;;;;;0.00;0.00;;;24.60;99.90;;;;;;5033699;28;20044;-76
2023/04/22 11:40:13;;;;;;;0.00;0.00;;;24.80;99.90;;;;;;5033526;28;20022;-74
2023/04/22 11:42:39;;;;;;;0.00;0.00;;;25.20;99.90;;;;;;5032559;28;20022;-75
2023/04/22 11:45:06;;;;;;;0.00;0.00;;;25.00;99.90;;;;;;5033584;28;20388;-75
2023/04/22 11:47:33;;;;;;;0.00;0.00;;;25.50;99.90;;;;;;5033238;28;20056;-75
2023/04/22 11:50:03;;;;;;;0.00;0.00;;;25.80;99.90;;;;;;5033645;28;20028;-74
2023/04/22 11:52:47;;;;;;;0.00;0.00;;;25.20;99.90;;;;;;5033260;28;20022;-74
2023/04/22 11:55:16;;;;;;;0.00;0.00;;;25.10;99.90;;;;;;5032256;28;20030;-74
2023/04/22 11:57:44;;;;;;;0.00;0.00;;;25.40;99.90;;;;;;5034951;28;20091;-74
2023/04/22 12:00:13;;;;;;;0.00;0.00;;;25.20;99.90;;;;;;5037572;28;20029;-74
2023/04/22 12:02:53;;;;;;;0.00;0.00;;;24.90;99.90;;;;;;5036918;28;20017;-75
2023/04/22 12:05:21;;;;;;;0.00;0.00;;;24.30;99.90;;;;;;5036369;28;20036;-75
2023/04/22 12:07:51;;;;;;;0.00;0.00;;;24.10;99.90;;;;;;5037076;28;20032;-77
2023/04/22 12:10:16;;;;;;;0.00;0.00;;;23.70;99.90;;;;;;5037436;28;20032;-76
2023/04/22 12:12:42;;;;;;;0.10;0.10;;;23.50;99.90;;;;;;5037159;28;20033;-76
2023/04/22 12:15:10;;;;;;;0.00;0.00;;;24.00;99.90;;;;;;5026475;28;20495;-76
2023/04/22 12:17:36;;;;;;;0.00;0.00;;;24.60;99.90;;;;;;5017052;28;20026;-77
2023/04/22 12:20:12;;;;;;;0.00;0.00;;;24.70;99.90;;;;;;5027494;28;20037;-77
2023/04/22 12:22:38;;;;;;;0.00;0.00;;;24.20;99.90;;;;;;5035686;28;20025;-77
2023/04/22 12:25:04;;;;;;;0.03;0.03;;;23.80;99.90;;;;;;5036842;28;20393;-77
2023/04/22 12:27:30;;;;;;;0.00;0.00;;;23.40;99.90;;;;;;5034254;28;20033;-76
2023/04/22 12:29:56;;;;;;;0.00;0.00;;;23.50;99.90;;;;;;5025841;28;20017;-76
2023/04/22 12:32:24;;;;;;;0.00;0.00;;;24.00;99.90;;;;;;5023263;28;20116;-77
2023/04/22 12:34:50;;;;;;;0.08;0.08;;;24.00;99.90;;;;;;5027156;28;20026;-76
2023/04/22 12:37:17;;;;;;;0.00;0.00;;;24.80;99.90;;;;;;5016433;28;20101;-75
2023/04/22 12:39:43;;;;;;;0.00;0.00;;;25.50;99.90;;;;;;5016947;28;20076;-76
2023/04/22 12:42:09;;;;;;;0.00;0.00;;;26.40;99.90;;;;;;5017183;28;20025;-76
2023/04/22 12:44:35;;;;;;;0.00;0.00;;;26.50;99.90;;;;;;5016596;28;20104;-76
2023/04/22 12:47:00;;;;;;;0.00;0.00;;;27.10;99.90;;;;;;5023935;28;20032;-75
2023/04/22 12:49:26;;;;;;;0.00;0.00;;;27.20;99.90;;;;;;5036529;28;20026;-75
2023/04/22 12:51:52;;;;;;;0.00;0.00;;;27.40;99.90;;;;;;5036521;28;20108;-76